Portada
METAR-TAF:

METAR-TAF

Aeropuertos :

Tela, Honduras

latitud: 15-43N, longitud: 087-29W, altitud: 3 m

Observación

El informe se hizo hace 5 horas y 46 minutos, a las 00:00 UTC
Viento 10 kt del este-noreste
Temperatura 28°C
Humedad 89%
Presión 1013 hPa
Visibilidad 10 km o más
Nubes dispersas a una altura de 2400 ft, Cumulonimbus.
calima

METAR: MHTE 120000Z 06010KT 9999 SCT024CB 28/26 Q1013 CB N SE TCU ALL HZ

Hora: 23:46 (05:46 UTC)


TAF: falta

Observaciones y pronósticos meteorológicos de más de 4000 aeropuertos (mensajes METAR y TAF).

Los puntos amarillos y rojos representan las estaciones disponibles.

Ponga el ratón en el punto deseado para ver el nombre de la estación.

Haga clic para ver las observaciones y los pronósticos meteorológicos.

Para cambiar el mapa : haga clic en los botones verdes con una cruz de color negro para hacer un zoom, en el botón verde con un guión para alejar o en las flechas verdes para mapas adyacentes.


METAR-TAF: